ENAL/AES METAR and TAF weather

Enter ICAO airport designator
Station Type Date Time Source
ENAL METAR 2020/09/19 19:20 UTC NOAA

ENAL 191920Z AUTO 23007KT 9999 NCD 11/07 Q1022


Station Type Date Time Source
ENAL Decoded METAR 2020/09/19 19:20 UTC NOAA

Alesund / Vigra, Norway (ENAL) 62-34N 006-07E 22M
Sep 19, 2020 - 03:20 PM EDT / 2020.09.19 1920 UTC
Wind: from the SW (230 degrees) at 8 MPH (7 KT):0
Visibility: greater than 7 mile(s):0
Temperature: 51 F (11 C)
Dew Point: 44 F (7 C)
Relative Humidity: 76%
Pressure (altimeter): 30.18 in. Hg (1022 hPa)
ob: ENAL 191920Z AUTO 23007KT 9999 NCD 11/07 Q1022
cycle: 19

Station Type Date Time Source
ENAL TAF UTC NOAA

Error!

Example: see airport list